Time;durP1;ratioP1;P1;durP2;ratioP2;P2;SDS_P1;SDS_P2;PMS_P1;PMS_P2;Temp;Humidity;BMP_temperature;BMP_pressure;BME280_temperature;BME280_humidity;BME280_pressure;Samples;Min_cycle;Max_cycle;Signal;HPM_P1;HPM_P2
2022/08/21 00:03:02;;;;;;;14.15;8.88;;;;;;;;;;8378952;28;20114;-88
2022/08/21 00:07:04;;;;;;;13.00;9.55;;;;;;;;;;8378378;28;20040;-95
2022/08/21 00:11:07;;;;;;;10.77;8.63;;;;;;;;;;8382850;28;20060;-88
2022/08/21 00:15:16;;;;;;;15.18;9.90;;;;;;;;;;8374829;28;20531;-90
2022/08/21 00:19:21;;;;;;;15.25;9.45;;;;;;;;;;8383365;28;20515;-89
2022/08/21 00:23:23;;;;;;;18.27;9.52;;;;;;;;;;8363759;28;20365;-90
2022/08/21 00:27:26;;;;;;;15.13;10.02;;;;;;;;;;8374353;28;20052;-89
2022/08/21 00:31:29;;;;;;;15.38;9.85;;;;;;;;;;8368671;28;20397;-88
2022/08/21 00:35:36;;;;;;;12.88;8.75;;;;;;;;;;8367915;28;20044;-88
2022/08/21 00:39:39;;;;;;;16.20;9.77;;;;;;;;;;8367779;28;20754;-89
2022/08/21 00:43:44;;;;;;;14.45;9.13;;;;;;;;;;8367834;28;20129;-89
2022/08/21 00:47:47;;;;;;;11.45;7.57;;;;;;;;;;8367317;28;20071;-88
2022/08/21 00:51:54;;;;;;;10.20;7.68;;;;;;;;;;8367665;28;20041;-88
2022/08/21 00:55:58;;;;;;;11.10;7.30;;;;;;;;;;8367570;28;20497;-89
2022/08/21 01:00:02;;;;;;;9.77;6.82;;;;;;;;;;8367374;28;20051;-88
2022/08/21 01:04:05;;;;;;;12.32;7.03;;;;;;;;;;8367462;28;20047;-88
2022/08/21 01:08:12;;;;;;;9.45;6.85;;;;;;;;;;8367370;28;20045;-91
2022/08/21 01:12:15;;;;;;;8.20;6.40;;;;;;;;;;8360969;28;20041;-88
2022/08/21 01:16:21;;;;;;;8.25;6.22;;;;;;;;;;8360941;28;20048;-89
2022/08/21 01:20:24;;;;;;;10.43;7.82;;;;;;;;;;8367194;28;20037;-88
2022/08/21 01:24:30;;;;;;;9.82;7.20;;;;;;;;;;8367082;28;20060;-89
2022/08/21 01:28:36;;;;;;;9.93;6.85;;;;;;;;;;8366732;28;20098;-89
2022/08/21 01:32:38;;;;;;;12.52;6.55;;;;;;;;;;8366690;28;20045;-88
2022/08/21 01:36:41;;;;;;;10.77;6.70;;;;;;;;;;8366779;28;20045;-89
2022/08/21 01:40:45;;;;;;;10.98;5.70;;;;;;;;;;8366059;28;20063;-90
2022/08/21 01:44:48;;;;;;;10.15;6.00;;;;;;;;;;8366025;28;20116;-91
2022/08/21 01:48:51;;;;;;;8.45;6.60;;;;;;;;;;8345046;28;20056;-88
2022/08/21 01:52:53;;;;;;;9.05;6.38;;;;;;;;;;8365860;28;20049;-89
2022/08/21 01:56:59;;;;;;;13.18;6.78;;;;;;;;;;8365960;28;20056;-90
2022/08/21 02:01:02;;;;;;;11.45;6.63;;;;;;;;;;8368948;28;20119;-88
2022/08/21 02:05:05;;;;;;;10.50;6.65;;;;;;;;;;8365382;28;20502;-89
2022/08/21 02:09:11;;;;;;;10.73;6.53;;;;;;;;;;8365637;28;20044;-88
2022/08/21 02:13:18;;;;;;;9.82;6.53;;;;;;;;;;8365054;28;20075;-89
2022/08/21 02:17:20;;;;;;;15.68;6.38;;;;;;;;;;8364910;28;20048;-89
2022/08/21 02:21:23;;;;;;;10.05;6.28;;;;;;;;;;8364431;28;20048;-90
2022/08/21 02:25:26;;;;;;;9.02;6.90;;;;;;;;;;8364743;28;20757;-89
2022/08/21 02:29:31;;;;;;;7.75;6.35;;;;;;;;;;8364347;28;20603;-90
2022/08/21 02:33:34;;;;;;;7.63;6.00;;;;;;;;;;8364830;28;20061;-89
2022/08/21 02:37:44;;;;;;;7.78;5.72;;;;;;;;;;8360794;28;20489;-89
2022/08/21 02:41:47;;;;;;;8.88;5.78;;;;;;;;;;8358080;28;20067;-88
2022/08/21 02:45:52;;;;;;;13.77;6.75;;;;;;;;;;8358485;28;20045;-91
2022/08/21 02:49:54;;;;;;;9.15;5.95;;;;;;;;;;8364027;28;20451;-88
2022/08/21 02:53:57;;;;;;;10.30;5.50;;;;;;;;;;8363960;28;20469;-89
2022/08/21 02:58:00;;;;;;;9.63;6.15;;;;;;;;;;8364925;28;20049;-89
2022/08/21 03:02:04;;;;;;;11.05;6.35;;;;;;;;;;8363811;28;20055;-88
2022/08/21 03:06:08;;;;;;;8.20;6.38;;;;;;;;;;8363637;28;20044;-88
2022/08/21 03:10:11;;;;;;;7.93;6.22;;;;;;;;;;8363883;28;20040;-89
2022/08/21 03:14:14;;;;;;;8.93;6.03;;;;;;;;;;8363676;28;20052;-89
2022/08/21 03:18:18;;;;;;;9.35;6.00;;;;;;;;;;8363237;28;20045;-88
2022/08/21 03:22:20;;;;;;;8.98;6.43;;;;;;;;;;8355812;28;20501;-89
2022/08/21 03:26:24;;;;;;;11.50;6.35;;;;;;;;;;8362828;28;20402;-88
2022/08/21 03:30:26;;;;;;;11.73;6.57;;;;;;;;;;8362780;28;20128;-88
2022/08/21 03:34:30;;;;;;;8.80;6.15;;;;;;;;;;8358709;28;20524;-88
2022/08/21 03:38:40;;;;;;;8.52;5.82;;;;;;;;;;8362785;28;20079;-90
2022/08/21 03:42:45;;;;;;;10.07;5.93;;;;;;;;;;8362374;28;20049;-88
2022/08/21 03:46:47;;;;;;;10.68;5.65;;;;;;;;;;8362700;28;20049;-89
2022/08/21 03:50:53;;;;;;;8.02;5.47;;;;;;;;;;8362447;28;20071;-89
2022/08/21 03:54:56;;;;;;;7.05;5.30;;;;;;;;;;8362575;28;20539;-88
2022/08/21 03:58:59;;;;;;;8.25;4.95;;;;;;;;;;8362720;28;20056;-89
2022/08/21 04:03:01;;;;;;;10.07;5.30;;;;;;;;;;8358386;28;20498;-89
2022/08/21 04:07:05;;;;;;;9.40;5.63;;;;;;;;;;8362023;28;20041;-89
2022/08/21 04:11:10;;;;;;;8.77;5.40;;;;;;;;;;8362413;28;20049;-88
2022/08/21 04:15:13;;;;;;;10.00;5.28;;;;;;;;;;8362118;28;20041;-90
2022/08/21 04:19:15;;;;;;;9.05;5.38;;;;;;;;;;8362097;28;20099;-90
2022/08/21 04:23:20;;;;;;;9.95;5.40;;;;;;;;;;8359422;28;20375;-88
2022/08/21 04:27:35;;;;;;;8.32;5.07;;;;;;;;;;8367478;28;20053;-88
2022/08/21 04:31:38;;;;;;;7.63;5.30;;;;;;;;;;8362279;28;20485;-88
2022/08/21 04:35:41;;;;;;;8.57;5.95;;;;;;;;;;8361772;28;20061;-88
2022/08/21 04:39:45;;;;;;;9.32;5.70;;;;;;;;;;8361884;28;20045;-89
2022/08/21 04:43:48;;;;;;;8.93;5.45;;;;;;;;;;8361914;28;20045;-88
2022/08/21 04:47:51;;;;;;;12.18;5.55;;;;;;;;;;8367090;28;20045;-88
2022/08/21 04:51:54;;;;;;;8.05;5.47;;;;;;;;;;8367806;28;20389;-89
2022/08/21 04:56:04;;;;;;;8.63;5.70;;;;;;;;;;8367578;28;20045;-89
2022/08/21 05:00:08;;;;;;;6.82;5.43;;;;;;;;;;8347837;28;20113;-88
2022/08/21 05:04:15;;;;;;;7.43;5.13;;;;;;;;;;8368015;28;20503;-88
2022/08/21 05:08:20;;;;;;;11.35;5.78;;;;;;;;;;8367340;28;20049;-88
2022/08/21 05:12:24;;;;;;;7.47;5.20;;;;;;;;;;8380086;28;20189;-89
2022/08/21 05:16:27;;;;;;;7.82;5.20;;;;;;;;;;8376727;28;20041;-90
2022/08/21 05:20:30;;;;;;;9.65;5.28;;;;;;;;;;8385634;28;20037;-89
2022/08/21 05:24:33;;;;;;;8.88;5.30;;;;;;;;;;8374731;28;20085;-88
2022/08/21 05:28:37;;;;;;;10.02;4.95;;;;;;;;;;8366824;28;20474;-91
2022/08/21 05:32:40;;;;;;;10.88;5.10;;;;;;;;;;8373283;28;20049;-88
2022/08/21 05:36:43;;;;;;;10.45;5.53;;;;;;;;;;8384839;28;20105;-87
2022/08/21 05:40:46;;;;;;;14.68;5.03;;;;;;;;;;8380413;28;20057;-88
2022/08/21 05:44:50;;;;;;;9.00;5.30;;;;;;;;;;8369232;28;20049;-91
2022/08/21 05:48:52;;;;;;;12.40;5.95;;;;;;;;;;8359104;28;20048;-88
2022/08/21 05:52:55;;;;;;;12.55;5.78;;;;;;;;;;8366058;28;20114;-90
2022/08/21 05:56:58;;;;;;;9.00;5.32;;;;;;;;;;8359759;28;20045;-90
2022/08/21 06:01:04;;;;;;;9.10;5.05;;;;;;;;;;8376656;28;20079;-89
2022/08/21 06:05:07;;;;;;;9.23;5.43;;;;;;;;;;8393523;28;20048;-92
2022/08/21 06:09:10;;;;;;;10.40;5.60;;;;;;;;;;8364971;28;20472;-93
2022/08/21 06:13:13;;;;;;;9.95;5.30;;;;;;;;;;8367248;28;20099;-90
2022/08/21 06:17:17;;;;;;;9.30;4.70;;;;;;;;;;8369089;28;20033;-90
2022/08/21 06:27:08;;;;;;;12.95;5.35;;;;;;;;;;8365939;28;20083;-89
2022/08/21 06:37:21;;;;;;;7.97;4.95;;;;;;;;;;8332665;28;20057;-89
2022/08/21 06:41:41;;;;;;;8.77;4.80;;;;;;;;;;8361385;28;20844;-93
2022/08/21 06:45:43;;;;;;;;;;;;;;;;;;8363155;28;20445;-92
2022/08/21 06:49:46;;;;;;;7.78;4.38;;;;;;;;;;8358019;28;19931;-90
2022/08/21 06:53:49;;;;;;;7.80;4.28;;;;;;;;;;8362211;28;20052;-90
2022/08/21 06:57:53;;;;;;;6.38;4.30;;;;;;;;;;8361529;28;20052;-89
2022/08/21 07:01:55;;;;;;;6.78;4.20;;;;;;;;;;8359554;28;20041;-89
2022/08/21 07:05:58;;;;;;;6.63;4.55;;;;;;;;;;8366545;28;20140;-91
2022/08/21 07:10:01;;;;;;;9.75;4.32;;;;;;;;;;8358285;28;20166;-91
2022/08/21 07:14:05;;;;;;;6.13;4.30;;;;;;;;;;8358425;28;20043;-93
2022/08/21 07:18:08;;;;;;;7.32;5.35;;;;;;;;;;8360066;28;20041;-92
2022/08/21 07:22:11;;;;;;;10.30;5.32;;;;;;;;;;8366117;28;20053;-92
2022/08/21 07:26:14;;;;;;;7.45;3.85;;;;;;;;;;8352350;28;20083;-93
2022/08/21 07:30:18;;;;;;;6.50;3.72;;;;;;;;;;8358287;28;20432;-94
2022/08/21 07:34:21;;;;;;;6.90;3.40;;;;;;;;;;8359173;28;20412;-93
2022/08/21 07:38:24;;;;;;;6.00;3.40;;;;;;;;;;8367467;28;20052;-92
2022/08/21 07:42:27;;;;;;;10.43;3.40;;;;;;;;;;8355418;28;20056;-90
2022/08/21 07:46:37;;;;;;;7.28;3.08;;;;;;;;;;8363192;28;20412;-90
2022/08/21 07:50:40;;;;;;;5.88;3.20;;;;;;;;;;8345339;28;20102;-92
2022/08/21 07:54:43;;;;;;;9.40;3.03;;;;;;;;;;8360363;28;20136;-92
2022/08/21 07:58:52;;;;;;;7.05;2.92;;;;;;;;;;8357030;28;20412;-90
2022/08/21 08:03:11;;;;;;;7.00;3.15;;;;;;;;;;8358668;28;20481;-91
2022/08/21 08:07:17;;;;;;;6.65;3.25;;;;;;;;;;8352832;28;20098;-87
2022/08/21 08:11:21;;;;;;;10.52;3.30;;;;;;;;;;8366418;28;20041;-88
2022/08/21 08:15:32;;;;;;;4.43;2.88;;;;;;;;;;8364599;28;20052;-89
2022/08/21 08:19:51;;;;;;;8.27;3.17;;;;;;;;;;8358784;28;20071;-92
2022/08/21 08:29:07;;;;;;;6.75;3.50;;;;;;;;;;8303025;28;20218;-89
2022/08/21 08:39:14;;;;;;;5.95;3.55;;;;;;;;;;8334110;28;20105;-87
2022/08/21 08:58:47;;;;;;;7.88;4.25;;;;;;;;;;8838078;23;20065;-86
2022/08/21 09:03:22;;;;;;;7.13;3.65;;;;;;;;;;8381081;28;20048;-87
2022/08/21 09:07:56;;;;;;;7.78;4.18;;;;;;;;;;8373327;28;20090;-86
2022/08/21 09:12:33;;;;;;;8.05;3.92;;;;;;;;;;8367356;28;20041;-87
2022/08/21 09:16:59;;;;;;;12.57;3.67;;;;;;;;;;8369447;28;20485;-87
2022/08/21 09:21:25;;;;;;;8.77;4.80;;;;;;;;;;8367139;28;20044;-87
2022/08/21 09:25:48;;;;;;;7.00;4.28;;;;;;;;;;8382318;28;20072;-87
2022/08/21 09:30:04;;;;;;;9.88;4.38;;;;;;;;;;8379649;28;20044;-86
2022/08/21 09:34:33;;;;;;;7.00;4.47;;;;;;;;;;8365344;28;20044;-87
2022/08/21 09:38:57;;;;;;;11.48;4.00;;;;;;;;;;8388631;28;20044;-87
2022/08/21 09:43:20;;;;;;;8.88;4.15;;;;;;;;;;8366073;28;20048;-87
2022/08/21 09:47:40;;;;;;;9.57;4.05;;;;;;;;;;8379590;28;20047;-89
2022/08/21 09:52:02;;;;;;;6.30;3.75;;;;;;;;;;8366442;28;20044;-87
2022/08/21 10:01:26;;;;;;;11.75;4.05;;;;;;;;;;8236291;28;20062;-87
2022/08/21 10:05:33;;;;;;;5.60;4.10;;;;;;;;;;8319791;28;20412;-88
2022/08/21 10:09:38;;;;;;;6.00;4.40;;;;;;;;;;8372848;28;20557;-90
2022/08/21 10:13:53;;;;;;;9.18;4.15;;;;;;;;;;8392806;28;20411;-91
2022/08/21 10:18:14;;;;;;;8.45;4.78;;;;;;;;;;8362694;28;20052;-90
2022/08/21 10:22:33;;;;;;;6.70;4.35;;;;;;;;;;8373211;28;20045;-88
2022/08/21 10:26:53;;;;;;;5.97;4.00;;;;;;;;;;8377570;28;20057;-88
2022/08/21 10:31:01;;;;;;;6.93;3.92;;;;;;;;;;8370170;28;20132;-87
2022/08/21 10:35:18;;;;;;;11.00;4.30;;;;;;;;;;8370579;28;20055;-91
2022/08/21 10:39:37;;;;;;;6.85;4.25;;;;;;;;;;8371801;28;20551;-89
2022/08/21 10:44:02;;;;;;;6.28;4.13;;;;;;;;;;8385779;28;20074;-91
2022/08/21 10:48:21;;;;;;;9.75;4.28;;;;;;;;;;8389066;28;20036;-90
2022/08/21 10:52:49;;;;;;;6.53;3.72;;;;;;;;;;8370461;28;20048;-86
2022/08/21 10:57:06;;;;;;;;;;;;;;;;;;8368342;28;20053;-90
2022/08/21 11:01:31;;;;;;;7.43;3.88;;;;;;;;;;8374625;28;20369;-90
2022/08/21 11:05:55;;;;;;;6.18;3.97;;;;;;;;;;8380341;28;20079;-91
2022/08/21 11:10:16;;;;;;;5.72;3.83;;;;;;;;;;8372690;28;20045;-88
2022/08/21 11:14:37;;;;;;;10.43;3.78;;;;;;;;;;8344328;28;20057;-86
2022/08/21 11:18:46;;;;;;;6.53;3.45;;;;;;;;;;8374604;28;20079;-92
2022/08/21 11:22:54;;;;;;;4.57;3.22;;;;;;;;;;8382439;28;20194;-87
2022/08/21 11:27:04;;;;;;;7.63;3.67;;;;;;;;;;8365945;28;20048;-90
2022/08/21 11:31:23;;;;;;;7.68;3.45;;;;;;;;;;8362519;28;20412;-88
2022/08/21 11:35:36;;;;;;;6.47;3.70;;;;;;;;;;8380764;28;20048;-91
2022/08/21 11:39:49;;;;;;;5.57;3.20;;;;;;;;;;8378861;28;20501;-91
2022/08/21 11:43:57;;;;;;;6.53;3.13;;;;;;;;;;8381233;28;20765;-89
2022/08/21 11:48:09;;;;;;;5.03;3.28;;;;;;;;;;8374359;28;20033;-88
2022/08/21 11:52:19;;;;;;;8.10;3.78;;;;;;;;;;8372733;28;20412;-90
2022/08/21 11:56:26;;;;;;;5.25;3.10;;;;;;;;;;8371447;28;20060;-88
2022/08/21 12:00:32;;;;;;;4.45;3.13;;;;;;;;;;8375148;28;20037;-90
2022/08/21 12:04:43;;;;;;;8.05;3.30;;;;;;;;;;8388582;28;20408;-91
2022/08/21 12:08:59;;;;;;;4.20;2.88;;;;;;;;;;8371386;28;20029;-88
2022/08/21 12:13:11;;;;;;;4.85;3.00;;;;;;;;;;8370276;28;20409;-88
2022/08/21 12:17:20;;;;;;;7.53;3.67;;;;;;;;;;8382373;28;20048;-87
2022/08/21 12:21:25;;;;;;;6.65;3.20;;;;;;;;;;8384729;28;20040;-89
2022/08/21 12:25:39;;;;;;;5.75;3.15;;;;;;;;;;8384012;28;20056;-90
2022/08/21 12:29:49;;;;;;;5.60;3.67;;;;;;;;;;8361638;28;20102;-93
2022/08/21 12:33:58;;;;;;;9.27;3.50;;;;;;;;;;8382246;28;20405;-91
2022/08/21 12:38:08;;;;;;;6.28;3.75;;;;;;;;;;8378583;28;20048;-89
2022/08/21 12:42:22;;;;;;;5.68;3.00;;;;;;;;;;8374371;28;20040;-88
2022/08/21 12:46:32;;;;;;;6.28;3.70;;;;;;;;;;8382953;28;20188;-89
2022/08/21 12:50:39;;;;;;;5.60;3.22;;;;;;;;;;8379182;28;20056;-88
2022/08/21 12:54:44;;;;;;;6.30;3.40;;;;;;;;;;8367999;28;20044;-89
2022/08/21 12:58:51;;;;;;;6.82;3.53;;;;;;;;;;8371035;28;20761;-89
2022/08/21 13:02:55;;;;;;;7.80;3.63;;;;;;;;;;8364248;28;20143;-89
2022/08/21 13:07:00;;;;;;;7.65;3.30;;;;;;;;;;8380741;28;20419;-88
2022/08/21 13:11:06;;;;;;;5.88;3.42;;;;;;;;;;8387992;28;20059;-88
2022/08/21 13:15:11;;;;;;;6.63;3.85;;;;;;;;;;8381660;28;20102;-89
2022/08/21 13:19:20;;;;;;;6.70;3.50;;;;;;;;;;8383025;28;20037;-90
2022/08/21 13:23:46;;;;;;;6.45;3.60;;;;;;;;;;8386635;28;20054;-90
2022/08/21 13:28:00;;;;;;;4.78;3.25;;;;;;;;;;8369350;28;20164;-92
2022/08/21 13:32:07;;;;;;;7.95;4.28;;;;;;;;;;8386537;28;20052;-89
2022/08/21 13:36:12;;;;;;;6.35;3.50;;;;;;;;;;8379465;28;20055;-88
2022/08/21 13:40:18;;;;;;;7.32;3.53;;;;;;;;;;8364293;28;20163;-89
2022/08/21 13:44:26;;;;;;;5.45;3.30;;;;;;;;;;8380961;28;20052;-89
2022/08/21 13:48:35;;;;;;;9.07;3.78;;;;;;;;;;8371908;28;20052;-91
2022/08/21 13:52:51;;;;;;;6.65;3.30;;;;;;;;;;8379354;28;20045;-89
2022/08/21 13:56:54;;;;;;;4.88;3.00;;;;;;;;;;8369569;28;20071;-89
2022/08/21 14:00:58;;;;;;;4.47;3.30;;;;;;;;;;8365831;28;20041;-89
2022/08/21 14:05:03;;;;;;;5.47;3.67;;;;;;;;;;8365852;28;20080;-88
2022/08/21 14:09:11;;;;;;;5.55;3.55;;;;;;;;;;8381575;28;20132;-89
2022/08/21 14:13:33;;;;;;;7.13;3.35;;;;;;;;;;8365805;28;20091;-89
2022/08/21 14:17:39;;;;;;;6.07;2.88;;;;;;;;;;8364684;28;20048;-88
2022/08/21 14:21:44;;;;;;;5.13;3.00;;;;;;;;;;8366731;28;20052;-88
2022/08/21 14:25:47;;;;;;;6.05;3.22;;;;;;;;;;8385873;28;20040;-87
2022/08/21 14:29:49;;;;;;;4.82;2.92;;;;;;;;;;8373794;28;20527;-87
2022/08/21 14:33:52;;;;;;;5.13;3.13;;;;;;;;;;8370901;28;20063;-88
2022/08/21 14:37:56;;;;;;;7.05;3.70;;;;;;;;;;8364837;28;20041;-89
2022/08/21 14:42:00;;;;;;;5.88;3.25;;;;;;;;;;8364891;28;20045;-89
2022/08/21 14:46:03;;;;;;;7.30;3.65;;;;;;;;;;8364660;28;20040;-89
2022/08/21 14:50:06;;;;;;;5.60;3.80;;;;;;;;;;8376119;28;20596;-88
2022/08/21 14:54:10;;;;;;;5.75;3.90;;;;;;;;;;8364585;28;20068;-91
2022/08/21 14:58:13;;;;;;;6.50;3.63;;;;;;;;;;8370113;28;20056;-89
2022/08/21 15:02:15;;;;;;;5.97;3.90;;;;;;;;;;8368215;28;20048;-89
2022/08/21 15:06:20;;;;;;;5.03;4.05;;;;;;;;;;8368991;28;20049;-89
2022/08/21 15:10:27;;;;;;;7.00;4.13;;;;;;;;;;8364610;28;20087;-91
2022/08/21 15:14:43;;;;;;;5.22;3.75;;;;;;;;;;8374508;28;20063;-90
2022/08/21 15:18:48;;;;;;;6.38;3.88;;;;;;;;;;8378183;28;20053;-88
2022/08/21 15:22:51;;;;;;;6.22;3.90;;;;;;;;;;8373361;28;20075;-89
2022/08/21 15:27:02;;;;;;;5.07;3.88;;;;;;;;;;8383886;28;20132;-90
2022/08/21 15:31:05;;;;;;;7.60;4.35;;;;;;;;;;8372497;28;20049;-91
2022/08/21 15:35:08;;;;;;;5.25;3.97;;;;;;;;;;8368980;28;20720;-89
2022/08/21 15:39:11;;;;;;;5.28;3.70;;;;;;;;;;8375868;28;20167;-88
2022/08/21 15:43:29;;;;;;;4.80;3.50;;;;;;;;;;8384139;28;20580;-88
2022/08/21 15:47:37;;;;;;;7.45;3.70;;;;;;;;;;8385994;28;20546;-88
2022/08/21 15:51:39;;;;;;;5.68;3.53;;;;;;;;;;8387126;28;20049;-88
2022/08/21 15:55:42;;;;;;;6.05;3.70;;;;;;;;;;8376450;28;20567;-89
2022/08/21 15:59:48;;;;;;;7.63;3.63;;;;;;;;;;8385400;28;20102;-88
2022/08/21 16:03:54;;;;;;;6.78;3.60;;;;;;;;;;8370532;28;20055;-89
2022/08/21 16:07:57;;;;;;;6.43;3.78;;;;;;;;;;8380552;28;20094;-88
2022/08/21 16:12:01;;;;;;;5.13;3.97;;;;;;;;;;8362404;28;20102;-89
2022/08/21 16:16:05;;;;;;;9.10;4.50;;;;;;;;;;8370520;28;20048;-88
2022/08/21 16:20:13;;;;;;;4.70;4.00;;;;;;;;;;8385226;28;20049;-87
2022/08/21 16:24:15;;;;;;;8.77;5.60;;;;;;;;;;8372315;28;20045;-89
2022/08/21 16:28:19;;;;;;;6.10;4.18;;;;;;;;;;8377662;28;20051;-88
2022/08/21 16:32:23;;;;;;;9.35;4.05;;;;;;;;;;8380814;28;20045;-89
2022/08/21 16:36:27;;;;;;;6.25;4.10;;;;;;;;;;8370979;28;20044;-92
2022/08/21 16:40:29;;;;;;;5.95;4.18;;;;;;;;;;8371122;28;20126;-92
2022/08/21 16:44:34;;;;;;;5.80;3.88;;;;;;;;;;8380704;28;20450;-87
2022/08/21 16:48:38;;;;;;;4.75;3.70;;;;;;;;;;8387503;28;20052;-94
2022/08/21 16:52:41;;;;;;;8.32;4.82;;;;;;;;;;8386901;28;20052;-90
2022/08/21 16:56:43;;;;;;;6.65;4.05;;;;;;;;;;8376646;28;20057;-88
2022/08/21 17:00:46;;;;;;;7.63;3.90;;;;;;;;;;8380491;28;20055;-89
2022/08/21 17:04:50;;;;;;;6.97;4.28;;;;;;;;;;8382026;28;20098;-89
2022/08/21 17:08:53;;;;;;;5.80;3.80;;;;;;;;;;8382296;28;20044;-88
2022/08/21 17:12:58;;;;;;;6.85;4.00;;;;;;;;;;8381430;28;20125;-90
2022/08/21 17:17:03;;;;;;;6.20;4.50;;;;;;;;;;8381514;28;20075;-90
2022/08/21 17:21:13;;;;;;;6.35;4.30;;;;;;;;;;8391325;28;20048;-93
2022/08/21 17:25:23;;;;;;;7.43;4.72;;;;;;;;;;8387652;28;20450;-87
2022/08/21 17:29:34;;;;;;;6.63;4.22;;;;;;;;;;8387830;28;20041;-95
2022/08/21 17:33:49;;;;;;;7.70;4.63;;;;;;;;;;8390889;28;20044;-88
2022/08/21 17:37:53;;;;;;;5.47;4.22;;;;;;;;;;8566055;23;20085;-90
2022/08/21 17:41:58;;;;;;;11.20;4.40;;;;;;;;;;8375637;28;20121;-88
2022/08/21 17:46:00;;;;;;;16.08;10.20;;;;;;;;;;8369288;28;20045;-89
2022/08/21 17:50:04;;;;;;;7.88;5.85;;;;;;;;;;8374781;28;20123;-88
2022/08/21 17:54:08;;;;;;;5.30;4.57;;;;;;;;;;8373557;28;20102;-90
2022/08/21 17:58:14;;;;;;;11.15;5.80;;;;;;;;;;8356734;28;20056;-91
2022/08/21 18:02:17;;;;;;;7.05;5.95;;;;;;;;;;8350233;28;20474;-91
2022/08/21 18:06:20;;;;;;;14.75;13.25;;;;;;;;;;8337464;28;20048;-89
2022/08/21 18:10:25;;;;;;;14.02;10.13;;;;;;;;;;8343407;28;20100;-87
2022/08/21 18:14:30;;;;;;;9.60;6.85;;;;;;;;;;8344074;28;20045;-87
2022/08/21 18:18:41;;;;;;;14.88;8.40;;;;;;;;;;8341237;28;20047;-89
2022/08/21 18:22:43;;;;;;;43.20;16.10;;;;;;;;;;8356242;28;20409;-87
2022/08/21 18:26:47;;;;;;;18.15;8.65;;;;;;;;;;8349121;28;20406;-87
2022/08/21 18:30:53;;;;;;;19.77;8.57;;;;;;;;;;8352296;28;20049;-87
2022/08/21 18:34:58;;;;;;;19.77;8.73;;;;;;;;;;8360767;28;20049;-88
2022/08/21 18:39:00;;;;;;;16.70;8.15;;;;;;;;;;8363678;28;20095;-88
2022/08/21 18:43:08;;;;;;;6.25;4.65;;;;;;;;;;8365958;28;20059;-89
2022/08/21 18:47:18;;;;;;;11.50;6.38;;;;;;;;;;8365005;28;20053;-87
2022/08/21 18:51:21;;;;;;;6.38;4.57;;;;;;;;;;8364940;28;20044;-88
2022/08/21 18:55:24;;;;;;;6.88;4.38;;;;;;;;;;8359087;28;20045;-87
2022/08/21 18:59:29;;;;;;;18.38;8.57;;;;;;;;;;8363881;28;20086;-89
2022/08/21 19:03:32;;;;;;;9.52;5.00;;;;;;;;;;8363570;28;20049;-90
2022/08/21 19:07:35;;;;;;;7.93;4.80;;;;;;;;;;8363673;28;20052;-87
2022/08/21 19:11:41;;;;;;;24.75;10.25;;;;;;;;;;8363335;28;20086;-87
2022/08/21 19:15:48;;;;;;;8.50;5.18;;;;;;;;;;8363877;28;20053;-87
2022/08/21 19:24:08;;;;;;;11.38;5.57;;;;;;;;;;8362321;28;20091;-92
2022/08/21 19:28:22;;;;;;;12.18;5.25;;;;;;;;;;8354488;28;20124;-88
2022/08/21 19:32:26;;;;;;;12.30;5.70;;;;;;;;;;8363264;28;20049;-87
2022/08/21 19:36:29;;;;;;;9.43;4.47;;;;;;;;;;8362706;28;20053;-89
2022/08/21 19:40:31;;;;;;;10.68;5.28;;;;;;;;;;8362933;28;20068;-87
2022/08/21 19:44:36;;;;;;;5.45;4.13;;;;;;;;;;8362478;28;20059;-87
2022/08/21 19:48:40;;;;;;;6.07;4.60;;;;;;;;;;8362814;28;20049;-88
2022/08/21 19:52:43;;;;;;;6.18;5.03;;;;;;;;;;8363205;28;20041;-89
2022/08/21 19:56:46;;;;;;;8.98;4.32;;;;;;;;;;8362717;28;20048;-87
2022/08/21 20:00:48;;;;;;;9.55;4.80;;;;;;;;;;8362325;28;20052;-88
2022/08/21 20:04:52;;;;;;;8.68;4.82;;;;;;;;;;8362569;28;20041;-87
2022/08/21 20:08:55;;;;;;;8.43;5.03;;;;;;;;;;8363011;28;20056;-88
2022/08/21 20:12:58;;;;;;;12.00;5.82;;;;;;;;;;8362221;28;20048;-88
2022/08/21 20:17:06;;;;;;;9.13;5.22;;;;;;;;;;8382993;28;20025;-88
2022/08/21 20:21:12;;;;;;;7.85;5.30;;;;;;;;;;8379054;28;20110;-89
2022/08/21 20:25:15;;;;;;;12.18;6.45;;;;;;;;;;8371993;28;20055;-88
2022/08/21 20:29:19;;;;;;;13.65;7.13;;;;;;;;;;8372392;28;20056;-88
2022/08/21 20:33:22;;;;;;;16.13;7.00;;;;;;;;;;8369889;28;20477;-89
2022/08/21 20:37:26;;;;;;;15.27;7.53;;;;;;;;;;8366607;28;20057;-91
2022/08/21 20:41:29;;;;;;;12.07;6.07;;;;;;;;;;8368677;28;20041;-90
2022/08/21 20:45:35;;;;;;;15.15;7.07;;;;;;;;;;8361792;28;20049;-88
2022/08/21 20:49:43;;;;;;;7.13;5.00;;;;;;;;;;8365500;28;20048;-90
2022/08/21 20:53:55;;;;;;;7.13;4.60;;;;;;;;;;8361639;28;20060;-89
2022/08/21 20:58:03;;;;;;;6.93;4.57;;;;;;;;;;8362506;28;20378;-87
2022/08/21 21:02:16;;;;;;;7.07;4.60;;;;;;;;;;8367850;28;20119;-88
2022/08/21 21:06:24;;;;;;;5.40;4.40;;;;;;;;;;8354397;28;20045;-87
2022/08/21 21:10:36;;;;;;;7.45;4.68;;;;;;;;;;8364153;28;20041;-88
2022/08/21 21:14:43;;;;;;;6.70;4.90;;;;;;;;;;8367534;28;20056;-89
2022/08/21 21:18:50;;;;;;;6.80;5.05;;;;;;;;;;8367693;28;20045;-88
2022/08/21 21:22:57;;;;;;;6.88;5.13;;;;;;;;;;8367603;28;20071;-88
2022/08/21 21:27:09;;;;;;;7.07;5.00;;;;;;;;;;8369171;28;20102;-87
2022/08/21 21:31:12;;;;;;;6.88;5.30;;;;;;;;;;8366830;28;20048;-88
2022/08/21 21:35:16;;;;;;;6.75;4.90;;;;;;;;;;8366502;28;20049;-88
2022/08/21 21:39:37;;;;;;;6.70;4.90;;;;;;;;;;8372847;28;20067;-88
2022/08/21 21:44:03;;;;;;;6.95;5.28;;;;;;;;;;8343207;28;20057;-88
2022/08/21 21:48:18;;;;;;;7.22;5.10;;;;;;;;;;8366788;28;20057;-88
2022/08/21 21:52:38;;;;;;;8.75;5.03;;;;;;;;;;8365960;28;20490;-88
2022/08/21 21:56:51;;;;;;;6.60;5.22;;;;;;;;;;8365986;28;20049;-89
2022/08/21 22:01:03;;;;;;;7.25;5.30;;;;;;;;;;8364126;28;20044;-90
2022/08/21 22:05:10;;;;;;;7.63;5.00;;;;;;;;;;8364429;28;20041;-87
2022/08/21 22:13:45;;;;;;;7.35;5.22;;;;;;;;;;8361497;28;20045;-88
2022/08/21 22:18:07;;;;;;;8.27;5.10;;;;;;;;;;8365096;28;20045;-89
2022/08/21 22:22:14;;;;;;;9.48;5.47;;;;;;;;;;8365099;28;20045;-88
2022/08/21 22:26:20;;;;;;;6.22;5.20;;;;;;;;;;8365607;28;20059;-88
2022/08/21 22:30:39;;;;;;;6.55;5.20;;;;;;;;;;8358253;28;20120;-88
2022/08/21 22:34:44;;;;;;;8.27;5.55;;;;;;;;;;8350840;28;20049;-90
2022/08/21 22:38:50;;;;;;;7.85;6.00;;;;;;;;;;8344944;28;20056;-89
2022/08/21 22:47:21;;;;;;;7.75;5.43;;;;;;;;;;8339142;28;20052;-90
2022/08/21 22:51:31;;;;;;;7.70;5.38;;;;;;;;;;8342486;28;20042;-90
2022/08/21 22:55:38;;;;;;;7.38;5.68;;;;;;;;;;8342770;28;20083;-88
2022/08/21 22:59:53;;;;;;;9.05;5.85;;;;;;;;;;8332715;28;20449;-89
2022/08/21 23:03:59;;;;;;;7.95;5.47;;;;;;;;;;8344194;28;20509;-89
2022/08/21 23:08:20;;;;;;;12.07;5.80;;;;;;;;;;8346146;28;20128;-91
2022/08/21 23:12:26;;;;;;;7.57;5.68;;;;;;;;;;8322347;28;20486;-89
2022/08/21 23:16:51;;;;;;;7.55;5.90;;;;;;;;;;8334481;28;20389;-89
2022/08/21 23:21:00;;;;;;;8.57;5.75;;;;;;;;;;8341459;28;20037;-89
2022/08/21 23:25:17;;;;;;;6.82;5.20;;;;;;;;;;8348676;28;20045;-89
2022/08/21 23:29:29;;;;;;;7.93;6.05;;;;;;;;;;8340489;28;20558;-89
2022/08/21 23:33:54;;;;;;;9.73;6.63;;;;;;;;;;8343403;28;20049;-89
2022/08/21 23:38:07;;;;;;;7.07;5.40;;;;;;;;;;8345964;28;20183;-88
2022/08/21 23:42:27;;;;;;;8.20;6.07;;;;;;;;;;8351254;28;20115;-90
2022/08/21 23:46:46;;;;;;;10.48;6.05;;;;;;;;;;8336493;28;20041;-89
2022/08/21 23:50:55;;;;;;;9.05;6.10;;;;;;;;;;8332065;28;20041;-89
2022/08/21 23:55:16;;;;;;;7.55;5.53;;;;;;;;;;8327674;28;20068;-91
2022/08/21 23:59:38;;;;;;;11.10;5.95;;;;;;;;;;8327460;28;20042;-90
